createdAt,value
2018-10-19T00:01:19.252Z,113.80
2018-10-19T00:03:50.164Z,102.37
2018-10-19T00:06:19.956Z,93.37
2018-10-19T00:08:53.330Z,83.20
2018-10-19T00:11:23.353Z,97.97
2018-10-19T00:13:57.196Z,96.93
2018-10-19T00:16:26.916Z,102.23
2018-10-19T00:18:56.696Z,89.27
2018-10-19T00:21:27.669Z,90.40
2018-10-19T00:23:57.864Z,103.37
2018-10-19T00:26:28.740Z,109.63
2018-10-19T00:28:58.608Z,109.20
2018-10-19T00:31:28.346Z,103.97
2018-10-19T00:33:58.293Z,99.23
2018-10-19T00:36:30.272Z,108.13
2018-10-19T00:39:00.285Z,104.90
2018-10-19T00:41:31.260Z,104.60
2018-10-19T00:44:05.768Z,103.43
2018-10-19T00:46:35.348Z,97.83
2018-10-19T00:49:05.864Z,96.13
2018-10-19T00:51:36.860Z,96.40
2018-10-19T00:54:11.181Z,98.53
2018-10-19T00:56:41.216Z,104.50
2018-10-19T00:59:12.090Z,104.43
2018-10-19T01:01:43.153Z,96.70
2018-10-19T01:04:13.689Z,107.30
2018-10-19T01:06:43.725Z,96.43
2018-10-19T01:09:19.132Z,97.97
2018-10-19T01:11:49.788Z,102.97
2018-10-19T01:14:19.584Z,106.90
2018-10-19T01:16:49.320Z,96.20
2018-10-19T01:19:19.133Z,105.43
2018-10-19T01:21:48.817Z,98.47
2018-10-19T01:24:19.744Z,106.27
2018-10-19T01:26:49.720Z,104.57
2018-10-19T01:29:27.287Z,116.83
2018-10-19T01:31:57.927Z,106.93
2018-10-19T01:34:29.542Z,101.80
2018-10-19T01:37:04.012Z,101.97
2018-10-19T01:39:35.924Z,101.97
2018-10-19T01:42:06.688Z,101.17
2018-10-19T01:44:36.271Z,94.00
2018-10-19T01:47:07.018Z,106.00
2018-10-19T01:49:38.540Z,93.30
2018-10-19T01:52:08.076Z,102.00
2018-10-19T01:54:37.835Z,104.93
2018-10-19T01:57:07.584Z,99.73
2018-10-19T01:59:38.540Z,93.53
2018-10-19T02:02:08.523Z,103.37
2018-10-19T02:04:38.563Z,94.80
2018-10-19T02:07:09.612Z,98.73
2018-10-19T02:09:40.571Z,128.80
2018-10-19T02:12:10.517Z,102.73
2018-10-19T02:15:11.162Z,102.10
2018-10-19T02:17:52.217Z,109.23
2018-10-19T02:20:22.451Z,110.03
2018-10-19T02:22:59.383Z,98.47
2018-10-19T02:25:33.655Z,106.07
2018-10-19T02:28:05.660Z,121.10
2018-10-19T02:30:35.386Z,115.53
2018-10-19T02:33:07.375Z,106.57
2018-10-19T02:35:41.168Z,121.40
2018-10-19T02:38:11.132Z,125.53
2018-10-19T02:40:43.172Z,128.93
2018-10-19T02:43:13.143Z,103.93
2018-10-19T02:45:43.072Z,115.10
2018-10-19T02:48:12.964Z,117.23
2018-10-19T02:50:43.904Z,129.20
2018-10-19T02:53:16.820Z,99.03
2018-10-19T02:55:47.704Z,122.53
2018-10-19T02:58:18.700Z,117.03
2018-10-19T03:00:50.708Z,131.60
2018-10-19T03:03:20.454Z,120.53
2018-10-19T03:05:50.104Z,119.63
2018-10-19T03:08:20.021Z,123.63
2018-10-19T03:10:51.043Z,101.50
2018-10-19T03:13:20.760Z,106.13
2018-10-19T03:15:52.472Z,109.60
2018-10-19T03:18:24.360Z,118.83
2018-10-19T03:20:56.390Z,122.47
2018-10-19T03:23:26.232Z,135.13
2018-10-19T03:25:58.080Z,123.27
2018-10-19T03:28:28.723Z,118.27
2018-10-19T03:30:58.611Z,132.33
2018-10-19T03:33:28.240Z,126.63
2018-10-19T03:35:57.824Z,115.20
2018-10-19T03:38:28.599Z,118.53
2018-10-19T03:40:58.534Z,130.93
2018-10-19T03:43:28.360Z,125.33
2018-10-19T03:45:58.271Z,117.80
2018-10-19T03:48:29.887Z,130.27
2018-10-19T03:50:59.503Z,129.53
2018-10-19T03:53:29.109Z,123.43
2018-10-19T03:55:59.935Z,127.30
2018-10-19T03:58:30.780Z,152.07
2018-10-19T04:01:04.808Z,156.13
2018-10-19T04:03:35.858Z,170.10
2018-10-19T04:06:08.993Z,155.30
2018-10-19T04:08:41.132Z,139.13
2018-10-19T04:11:18.757Z,146.73
2018-10-19T04:13:50.572Z,143.83
2018-10-19T04:16:21.296Z,155.60
2018-10-19T04:18:51.964Z,144.97
2018-10-19T04:21:21.820Z,142.13
2018-10-19T04:23:51.481Z,138.87
2018-10-19T04:26:22.659Z,129.07
2018-10-19T04:28:52.883Z,152.53
2018-10-19T04:31:23.032Z,143.00
2018-10-19T04:33:53.935Z,140.90
2018-10-19T04:36:23.864Z,149.67
2018-10-19T04:38:57.671Z,145.00
2018-10-19T04:41:31.285Z,137.03
2018-10-19T04:44:02.060Z,160.27
2018-10-19T04:46:32.940Z,145.47
2018-10-19T04:49:05.892Z,155.63
2018-10-19T04:51:35.817Z,129.33
2018-10-19T04:54:05.752Z,136.20
2018-10-19T04:56:40.675Z,141.73
2018-10-19T04:59:13.710Z,143.83
2018-10-19T05:01:43.152Z,141.37
2018-10-19T05:04:12.940Z,131.43
2018-10-19T05:06:43.921Z,135.47
2018-10-19T05:09:13.704Z,137.23
2018-10-19T05:11:43.299Z,138.77
2018-10-19T05:14:13.160Z,128.70
2018-10-19T05:16:42.956Z,135.70
2018-10-19T05:19:30.088Z,124.63
2018-10-19T05:21:59.956Z,132.53
2018-10-19T05:24:33.347Z,110.10
2018-10-19T05:27:03.269Z,141.87
2018-10-19T05:29:34.108Z,116.47
2018-10-19T05:32:04.069Z,132.47
2018-10-19T05:34:34.638Z,112.03
2018-10-19T05:37:04.669Z,116.17
2018-10-19T05:39:35.356Z,127.17
2018-10-19T05:42:05.281Z,122.90
2018-10-19T05:44:35.100Z,119.13
2018-10-19T05:47:08.014Z,111.13
2018-10-19T05:49:38.604Z,119.93
2018-10-19T05:52:14.244Z,105.63
2018-10-19T05:54:43.848Z,124.97
2018-10-19T05:57:19.407Z,110.50
2018-10-19T05:59:49.217Z,125.87
2018-10-19T06:02:20.132Z,114.27
2018-10-19T06:04:50.879Z,106.13
2018-10-19T06:07:28.652Z,116.33
2018-10-19T06:10:09.655Z,115.57
2018-10-19T06:12:39.484Z,118.13
2018-10-19T06:15:16.996Z,119.40
2018-10-19T06:17:51.407Z,128.73
2018-10-19T06:20:21.324Z,130.07
2018-10-19T06:22:51.119Z,128.70
2018-10-19T06:25:20.876Z,131.10
2018-10-19T06:27:50.780Z,135.53
2018-10-19T06:30:20.644Z,140.20
2018-10-19T06:32:50.200Z,133.60
2018-10-19T06:35:27.180Z,138.30
2018-10-19T06:38:00.384Z,124.97
2018-10-19T06:40:30.457Z,130.83
2018-10-19T06:43:07.148Z,146.73
2018-10-19T06:45:37.979Z,145.23
2018-10-19T06:48:09.599Z,147.47
2018-10-19T06:50:39.576Z,157.70
2018-10-19T06:53:09.449Z,153.47
2018-10-19T06:55:40.204Z,160.97
2018-10-19T06:58:10.091Z,147.97
2018-10-19T07:00:39.914Z,147.13
2018-10-19T07:03:10.732Z,150.37
2018-10-19T07:05:40.632Z,153.20
2018-10-19T07:08:18.712Z,168.40
2018-10-19T07:10:48.875Z,172.60
2018-10-19T07:13:18.639Z,162.83
2018-10-19T07:15:48.652Z,158.37
2018-10-19T07:18:18.415Z,164.40
2018-10-19T07:20:48.263Z,151.87
2018-10-19T07:23:17.832Z,155.07
2018-10-19T07:25:47.644Z,162.20
2018-10-19T07:28:18.576Z,156.00
2018-10-19T07:30:48.458Z,153.97
2018-10-19T07:33:18.312Z,145.70
2018-10-19T07:35:49.096Z,164.10
2018-10-19T07:38:18.941Z,145.80
2018-10-19T07:40:48.794Z,145.83
2018-10-19T07:43:18.692Z,138.10
2018-10-19T07:45:51.601Z,136.97
2018-10-19T07:48:22.155Z,137.83
2018-10-19T07:50:52.364Z,135.83
2018-10-19T07:53:27.260Z,118.20
2018-10-19T07:55:59.406Z,125.23
2018-10-19T07:58:29.964Z,115.97
2018-10-19T08:00:59.606Z,123.80
2018-10-19T08:03:30.071Z,118.27
2018-10-19T08:06:01.819Z,109.73
2018-10-19T08:08:33.377Z,118.97
2018-10-19T08:11:05.534Z,110.23
2018-10-19T08:13:40.955Z,114.30
2018-10-19T08:16:10.855Z,111.63
2018-10-19T08:18:42.659Z,102.63
2018-10-19T08:21:12.632Z,100.60
2018-10-19T08:23:42.140Z,97.20
2018-10-19T08:26:11.996Z,102.10
2018-10-19T08:28:41.823Z,102.50
2018-10-19T08:31:13.675Z,102.60
2018-10-19T08:33:44.289Z,98.07
2018-10-19T08:36:16.963Z,96.00
2018-10-19T08:38:50.460Z,93.63
2018-10-19T08:41:20.146Z,97.87
2018-10-19T08:43:49.607Z,95.00
2018-10-19T08:46:25.528Z,94.60
2018-10-19T08:49:07.377Z,90.90
2018-10-19T08:51:37.172Z,95.77
2018-10-19T08:54:13.239Z,87.93
2018-10-19T08:56:42.907Z,88.93
2018-10-19T08:59:12.695Z,84.90
2018-10-19T09:01:42.188Z,81.93
2018-10-19T09:04:12.672Z,78.97
2018-10-19T09:06:42.107Z,77.67
2018-10-19T09:09:12.184Z,76.30
2018-10-19T09:11:41.863Z,82.10
2018-10-19T09:14:26.847Z,73.63
2018-10-19T09:17:06.668Z,66.00
2018-10-19T09:19:36.293Z,76.77
2018-10-19T09:22:06.493Z,67.60
2018-10-19T09:24:41.571Z,65.23
2018-10-19T09:27:12.253Z,66.60
2018-10-19T09:29:41.813Z,66.90
2018-10-19T09:32:25.115Z,66.50
2018-10-19T09:35:01.618Z,61.40
2018-10-19T09:37:31.306Z,68.73
2018-10-19T09:40:13.527Z,59.07
2018-10-19T09:42:50.899Z,60.53
2018-10-19T09:45:20.595Z,61.77
2018-10-19T09:47:50.441Z,75.03
2018-10-19T09:50:20.347Z,74.77
2018-10-19T09:52:55.869Z,65.77
2018-10-19T09:55:26.643Z,66.23
2018-10-19T09:57:56.531Z,59.00
2018-10-19T10:00:34.768Z,65.37
2018-10-19T10:03:05.371Z,64.70
2018-10-19T10:05:35.100Z,65.10
2018-10-19T10:08:05.130Z,59.03
2018-10-19T10:10:40.952Z,62.80
2018-10-19T10:13:12.750Z,65.57
2018-10-19T10:15:42.347Z,61.50
2018-10-19T10:18:12.047Z,57.50
2018-10-19T10:20:42.712Z,58.60
2018-10-19T10:23:13.483Z,64.87
2018-10-19T10:25:47.267Z,59.57
2018-10-19T10:28:17.076Z,67.93
2018-10-19T10:30:52.531Z,58.67
2018-10-19T10:33:22.249Z,58.23
2018-10-19T10:35:52.887Z,52.73
2018-10-19T10:38:23.596Z,59.43
2018-10-19T10:40:53.468Z,51.57
2018-10-19T10:43:27.319Z,62.60
2018-10-19T10:45:56.903Z,57.40
2018-10-19T10:48:26.440Z,53.47
2018-10-19T10:51:00.156Z,52.07
2018-10-19T10:53:39.627Z,55.27
2018-10-19T10:56:10.603Z,55.37
2018-10-19T10:58:40.441Z,49.13
2018-10-19T11:01:14.280Z,60.57
2018-10-19T11:03:44.060Z,51.27
2018-10-19T11:06:13.723Z,54.63
2018-10-19T11:08:46.744Z,52.27
2018-10-19T11:11:16.635Z,54.10
2018-10-19T11:13:46.331Z,59.00
2018-10-19T11:16:19.115Z,52.67
2018-10-19T11:18:48.763Z,55.23
2018-10-19T11:21:19.510Z,46.00
2018-10-19T11:23:49.346Z,49.97
2018-10-19T11:26:19.128Z,49.33
2018-10-19T11:28:52.811Z,44.70
2018-10-19T11:31:22.476Z,47.57
2018-10-19T11:33:58.471Z,50.53
2018-10-19T11:36:29.227Z,49.87
2018-10-19T11:39:04.507Z,51.30
2018-10-19T11:41:40.299Z,47.17
2018-10-19T11:44:10.139Z,48.87
2018-10-19T11:46:41.015Z,45.90
2018-10-19T11:49:10.924Z,48.80
2018-10-19T11:51:41.688Z,52.07
2018-10-19T11:54:11.543Z,51.90
2018-10-19T11:56:41.449Z,56.00
2018-10-19T11:59:11.286Z,55.80
2018-10-19T12:01:41.007Z,57.37
2018-10-19T12:04:11.879Z,56.40
2018-10-19T12:06:41.407Z,50.40
2018-10-19T12:09:11.911Z,57.03
2018-10-19T12:11:41.526Z,53.97
2018-10-19T12:14:12.291Z,60.10
2018-10-19T12:16:41.987Z,48.07
2018-10-19T12:19:11.820Z,49.27
2018-10-19T12:21:41.447Z,43.67
2018-10-19T12:24:11.991Z,43.13
2018-10-19T12:26:41.467Z,52.13
2018-10-19T12:29:12.180Z,44.80
2018-10-19T12:31:42.831Z,46.47
2018-10-19T12:34:12.734Z,39.13
2018-10-19T12:36:44.395Z,46.17
2018-10-19T12:39:19.958Z,34.53
2018-10-19T12:41:49.869Z,42.97
2018-10-19T12:44:19.764Z,38.13
2018-10-19T12:47:01.876Z,47.93
2018-10-19T12:49:31.459Z,44.67
2018-10-19T12:52:04.811Z,61.13
2018-10-19T12:54:36.651Z,50.57
2018-10-19T12:57:08.314Z,48.43
2018-10-19T12:59:41.059Z,51.40
2018-10-19T13:02:16.599Z,47.67
2018-10-19T13:04:46.443Z,43.37
2018-10-19T13:07:16.371Z,43.73
2018-10-19T13:09:48.107Z,43.23
2018-10-19T13:12:18.744Z,46.37
2018-10-19T13:14:48.555Z,39.83
2018-10-19T13:17:20.393Z,39.53
2018-10-19T13:19:50.939Z,56.00
2018-10-19T13:22:21.759Z,46.67
2018-10-19T13:24:51.691Z,45.63
2018-10-19T13:27:21.612Z,40.33
2018-10-19T13:29:51.403Z,47.80
2018-10-19T13:32:22.232Z,50.77
2018-10-19T13:34:52.783Z,49.17
2018-10-19T13:37:23.485Z,44.83
2018-10-19T13:39:54.323Z,41.17
2018-10-19T13:42:23.871Z,44.03
2018-10-19T13:44:53.662Z,55.27
2018-10-19T13:47:25.523Z,41.97
2018-10-19T13:49:55.215Z,42.50
2018-10-19T13:52:28.211Z,39.70
2018-10-19T13:55:01.640Z,43.50
2018-10-19T13:57:33.535Z,41.87
2018-10-19T14:00:06.483Z,42.13
2018-10-19T14:02:38.643Z,42.20
2018-10-19T14:05:10.544Z,40.73
2018-10-19T14:07:40.283Z,51.80
2018-10-19T14:10:11.058Z,43.33
2018-10-19T14:12:41.110Z,47.80
2018-10-19T14:15:11.535Z,47.20
2018-10-19T14:17:41.651Z,39.20
2018-10-19T14:20:13.271Z,45.10
2018-10-19T14:22:45.919Z,46.27
2018-10-19T14:25:15.483Z,43.70
2018-10-19T14:27:46.435Z,54.60
2018-10-19T14:30:17.256Z,46.53
2018-10-19T14:32:46.956Z,42.93
2018-10-19T14:35:16.857Z,41.03
2018-10-19T14:37:47.011Z,46.43
2018-10-19T14:40:19.167Z,43.03
2018-10-19T14:42:49.135Z,50.63
2018-10-19T14:45:18.867Z,44.00
2018-10-19T14:47:48.587Z,44.10
2018-10-19T14:50:19.050Z,46.00
2018-10-19T14:52:48.603Z,55.47
2018-10-19T14:55:19.341Z,41.33
2018-10-19T15:00:17.144Z,46.80
2018-10-19T15:02:47.079Z,49.10
2018-10-19T15:05:19.490Z,48.03
2018-10-19T15:07:50.983Z,48.33
2018-10-19T15:10:22.354Z,52.03
2018-10-19T15:12:56.771Z,55.13
2018-10-19T15:15:27.939Z,46.77
2018-10-19T15:17:58.588Z,50.20
2018-10-19T15:20:29.383Z,47.47
2018-10-19T15:23:00.203Z,51.50
2018-10-19T15:25:30.031Z,62.17
2018-10-19T15:28:00.871Z,54.80
2018-10-19T15:30:30.818Z,56.40
2018-10-19T15:33:02.699Z,51.70
2018-10-19T15:35:38.659Z,53.90
2018-10-19T15:38:10.455Z,64.13
2018-10-19T15:40:40.159Z,59.23
2018-10-19T15:43:09.955Z,62.20
2018-10-19T15:45:40.643Z,68.30
2018-10-19T15:48:10.462Z,59.50
2018-10-19T15:50:40.138Z,60.00
2018-10-19T15:53:09.922Z,61.70
2018-10-19T15:55:39.530Z,56.17
2018-10-19T15:58:09.286Z,63.67
2018-10-19T16:00:40.233Z,66.53
2018-10-19T16:03:11.049Z,64.57
2018-10-19T16:05:40.619Z,68.23
2018-10-19T16:08:22.375Z,67.00
2018-10-19T16:10:52.060Z,57.00
2018-10-19T16:13:21.742Z,60.07
2018-10-19T16:15:52.378Z,59.43
2018-10-19T16:18:22.165Z,64.07
2018-10-19T16:20:52.090Z,68.77
2018-10-19T16:23:25.786Z,68.33
2018-10-19T16:25:55.587Z,63.83
2018-10-19T16:28:25.281Z,61.20
2018-10-19T16:30:56.118Z,68.70
2018-10-19T16:33:30.778Z,132.07
2018-10-19T16:36:00.588Z,67.17
2018-10-19T16:38:31.300Z,75.00
2018-10-19T16:41:03.188Z,59.03
2018-10-19T16:43:34.019Z,66.17
2018-10-19T16:46:05.184Z,61.03
2018-10-19T16:48:38.867Z,61.47
2018-10-19T16:51:11.925Z,62.73
2018-10-19T16:53:42.699Z,73.37
2018-10-19T16:56:17.871Z,77.47
2018-10-19T16:58:49.670Z,101.17
2018-10-19T17:01:19.518Z,82.00
2018-10-19T17:03:49.799Z,71.53
2018-10-19T17:06:20.704Z,67.13
2018-10-19T17:08:50.575Z,90.73
2018-10-19T17:11:22.471Z,70.80
2018-10-19T17:13:56.127Z,81.90
2018-10-19T17:16:25.872Z,81.87
2018-10-19T17:18:56.733Z,74.90
2018-10-19T17:21:28.728Z,71.07
2018-10-19T17:23:58.804Z,62.90
2018-10-19T17:26:31.719Z,68.60
2018-10-19T17:29:01.692Z,76.73
2018-10-19T17:31:33.373Z,76.57
2018-10-19T17:34:03.047Z,66.50
2018-10-19T17:36:33.095Z,69.70
2018-10-19T17:39:05.044Z,82.23
2018-10-19T17:41:36.819Z,76.17
2018-10-19T17:44:10.631Z,77.47
2018-10-19T17:46:43.373Z,85.03
2018-10-19T17:49:13.338Z,89.63
2018-10-19T17:51:45.171Z,75.13
2018-10-19T17:54:15.486Z,82.73
2018-10-19T17:56:45.560Z,70.20
2018-10-19T17:59:18.497Z,69.70
2018-10-19T18:01:49.312Z,79.33
2018-10-19T18:04:19.604Z,76.57
2018-10-19T18:06:51.343Z,81.20
2018-10-19T18:09:22.542Z,76.93
2018-10-19T18:11:57.883Z,82.47
2018-10-19T18:14:27.888Z,73.83
2018-10-19T18:16:57.663Z,79.93
2018-10-19T18:19:28.531Z,76.47
2018-10-19T18:21:59.409Z,73.77
2018-10-19T18:24:32.374Z,81.63
2018-10-19T18:27:02.174Z,78.83
2018-10-19T18:29:32.943Z,82.27
2018-10-19T18:32:02.909Z,77.33
2018-10-19T18:34:34.695Z,83.07
2018-10-19T18:37:04.567Z,87.87
2018-10-19T18:39:34.446Z,73.93
2018-10-19T18:42:04.162Z,72.07
2018-10-19T18:44:35.026Z,76.33
2018-10-19T18:47:09.000Z,83.77
2018-10-19T18:49:39.603Z,81.20
2018-10-19T18:52:09.946Z,78.63
2018-10-19T18:54:39.442Z,77.13
2018-10-19T18:57:12.002Z,73.93
2018-10-19T18:59:41.629Z,75.73
2018-10-19T19:02:14.170Z,76.63
2018-10-19T19:04:44.031Z,72.60
2018-10-19T19:07:15.871Z,87.87
2018-10-19T19:09:54.109Z,85.07
2018-10-19T19:12:23.999Z,81.97
2018-10-19T19:14:57.614Z,78.17
2018-10-19T19:17:28.368Z,86.17
2018-10-19T19:20:07.364Z,86.63
2018-10-19T19:22:37.931Z,79.50
2018-10-19T19:25:14.910Z,89.40
2018-10-19T19:27:47.843Z,88.50
2018-10-19T19:30:17.869Z,75.87
2018-10-19T19:32:52.671Z,78.93
2018-10-19T19:35:23.555Z,85.53
2018-10-19T19:37:53.755Z,87.40
2018-10-19T19:40:23.667Z,93.37
2018-10-19T19:42:55.276Z,83.53
2018-10-19T19:45:25.119Z,93.23
2018-10-19T19:48:00.311Z,89.90
2018-10-19T19:50:30.182Z,88.23
2018-10-19T19:53:01.108Z,89.60
2018-10-19T19:55:32.830Z,98.97
2018-10-19T19:58:03.508Z,92.80
2018-10-19T20:00:33.138Z,87.10
2018-10-19T20:03:02.911Z,93.07
2018-10-19T20:05:32.939Z,103.00
2018-10-19T20:08:08.304Z,88.90
2018-10-19T20:10:38.235Z,95.97
2018-10-19T20:13:08.077Z,108.50
2018-10-19T20:15:37.738Z,102.63
2018-10-19T20:18:08.600Z,104.47
2018-10-19T20:20:38.243Z,101.97
2018-10-19T20:23:08.126Z,111.03
2018-10-19T20:25:37.979Z,94.87
2018-10-19T20:28:09.863Z,99.50
2018-10-19T20:30:39.543Z,96.53
2018-10-19T20:35:57.707Z,93.83
2018-10-19T20:38:29.560Z,79.83
2018-10-19T20:40:59.485Z,78.60
2018-10-19T20:43:29.271Z,83.97
2018-10-19T20:46:00.201Z,86.97
2018-10-19T20:48:30.039Z,89.77
2018-10-19T20:50:59.943Z,87.40
2018-10-19T20:53:29.628Z,85.90
2018-10-19T20:55:59.512Z,88.57
2018-10-19T20:58:32.475Z,90.47
2018-10-19T21:01:02.384Z,90.97
2018-10-19T21:03:32.335Z,92.10
2018-10-19T21:06:04.287Z,101.97
2018-10-19T21:08:34.171Z,99.50
2018-10-19T21:11:05.861Z,93.30
2018-10-19T21:13:36.723Z,95.63
2018-10-19T21:16:06.821Z,83.90
2018-10-19T21:18:38.783Z,78.73
2018-10-19T21:21:09.447Z,81.03
2018-10-19T21:23:38.977Z,80.23
2018-10-19T21:26:09.988Z,82.57
2018-10-19T21:28:39.555Z,85.60
2018-10-19T21:31:09.463Z,96.47
2018-10-19T21:33:39.211Z,86.30
2018-10-19T21:36:09.132Z,93.43
2018-10-19T21:38:39.662Z,88.47
2018-10-19T21:41:09.421Z,88.80
2018-10-19T21:43:38.879Z,82.83
2018-10-19T21:46:09.658Z,93.23
2018-10-19T21:48:39.363Z,87.10
2018-10-19T21:51:09.735Z,91.07
2018-10-19T21:53:41.360Z,78.70
2018-10-19T21:56:16.819Z,94.17
2018-10-19T21:58:47.561Z,96.33
2018-10-19T22:01:17.294Z,86.17
2018-10-19T22:03:47.091Z,80.17
2018-10-19T22:06:16.919Z,77.70
2018-10-19T22:08:46.826Z,79.50
2018-10-19T22:11:16.832Z,67.80
2018-10-19T22:13:46.794Z,85.47
2018-10-19T22:16:16.810Z,75.37
2018-10-19T22:18:46.494Z,70.40
2018-10-19T22:21:18.451Z,70.90
2018-10-19T22:23:48.067Z,84.17
2018-10-19T22:26:17.761Z,80.43
2018-10-19T22:28:49.601Z,76.33
2018-10-19T22:31:20.251Z,80.97
2018-10-19T22:33:50.994Z,83.90
2018-10-19T22:36:21.838Z,95.83
2018-10-19T22:38:51.550Z,92.47
2018-10-19T22:41:23.322Z,76.83
2018-10-19T22:43:54.226Z,98.07
2018-10-19T22:46:25.066Z,76.05
2018-10-19T22:48:55.002Z,72.00
2018-10-19T22:51:24.999Z,75.50
2018-10-19T22:53:56.881Z,70.90
2018-10-19T22:56:27.830Z,70.90
2018-10-19T22:58:58.639Z,91.35
2018-10-19T23:01:29.254Z,70.30
2018-10-19T23:04:00.045Z,79.77
2018-10-19T23:06:29.922Z,83.62
2018-10-19T23:09:09.090Z,86.40
2018-10-19T23:11:38.755Z,82.10
2018-10-19T23:14:09.422Z,77.80
2018-10-19T23:16:39.034Z,88.40
2018-10-19T23:19:09.833Z,87.72
2018-10-19T23:21:40.317Z,82.43
2018-10-19T23:24:10.926Z,86.70
2018-10-19T23:26:40.758Z,78.80
2018-10-19T23:29:14.637Z,64.90
2018-10-19T23:31:44.607Z,58.75
2018-10-19T23:34:16.519Z,61.13
2018-10-19T23:36:46.470Z,60.20
2018-10-19T23:39:17.302Z,70.40
2018-10-19T23:41:51.118Z,77.35
2018-10-19T23:44:20.714Z,58.08
2018-10-19T23:46:51.462Z,60.00
2018-10-19T23:49:21.082Z,73.52
2018-10-19T23:51:56.662Z,87.30
2018-10-19T23:54:26.794Z,86.87
2018-10-19T23:56:57.438Z,88.17
2018-10-19T23:59:36.888Z,80.05
